Time;durP1;ratioP1;P1;durP2;ratioP2;P2;SDS_P1;SDS_P2;PMS_P1;PMS_P2;Temp;Humidity;BMP_temperature;BMP_pressure;BME280_temperature;BME280_humidity;BME280_pressure;Samples;Min_cycle;Max_cycle;Signal;HPM_P1;HPM_P2
2021/01/30 00:00:28;;;;;;;47.37;28.23;;;;;;;-1.57;71.69;98239.17;124822;1106;104082;-80
2021/01/30 00:03:05;;;;;;;43.53;27.40;;;;;;;-1.62;71.48;98244.33;124920;1102;104166;-80
2021/01/30 00:05:34;;;;;;;44.07;27.63;;;;;;;-1.63;70.91;98234.97;124894;1103;104111;-80
2021/01/30 00:08:11;;;;;;;47.07;27.47;;;;;;;-1.70;71.41;98235.11;124909;1105;104281;-80
2021/01/30 00:10:38;;;;;;;45.13;28.87;;;;;;;-1.73;72.06;98237.71;124894;1106;104153;-80
2021/01/30 00:13:06;;;;;;;48.65;28.73;;;;;;;-1.78;71.83;98229.28;124818;1106;104147;-80
2021/01/30 00:15:34;;;;;;;53.50;32.50;;;;;;;-1.80;72.05;98231.83;124840;1105;104115;-80
2021/01/30 00:18:04;;;;;;;54.17;32.27;;;;;;;-1.85;71.49;98229.34;124891;1103;104213;-80
2021/01/30 00:20:35;;;;;;;56.70;30.70;;;;;;;-1.88;71.31;98226.84;124941;1103;101643;-80
2021/01/30 00:23:04;;;;;;;51.77;30.17;;;;;;;-1.85;72.59;98225.95;124848;1105;104299;-80
2021/01/30 00:25:33;;;;;;;47.10;27.50;;;;;;;-1.87;71.94;98231.09;124949;1105;104110;-80
2021/01/30 00:28:03;;;;;;;50.03;29.60;;;;;;;-1.95;71.19;98225.26;124924;1103;104156;-80
2021/01/30 00:30:32;;;;;;;43.67;26.80;;;;;;;-2.00;72.56;98227.02;124846;1105;104179;-80
2021/01/30 00:33:01;;;;;;;45.37;27.47;;;;;;;-1.99;72.10;98220.19;124893;1105;101996;-80
2021/01/30 00:35:31;;;;;;;45.13;26.33;;;;;;;-1.95;72.28;98217.59;124895;1103;104249;-80
2021/01/30 00:37:59;;;;;;;48.23;27.70;;;;;;;-1.98;72.13;98219.32;124831;1102;104114;-80
2021/01/30 00:40:26;;;;;;;36.23;22.23;;;;;;;-2.04;71.57;98220.27;124863;1102;104132;-80
2021/01/30 00:42:55;;;;;;;37.97;23.97;;;;;;;-2.09;71.72;98227.16;124894;1102;104321;-80
2021/01/30 00:45:25;;;;;;;44.23;26.10;;;;;;;-2.10;72.92;98228.02;124881;1105;104408;-80
2021/01/30 00:47:53;;;;;;;42.30;25.50;;;;;;;-2.05;72.67;98225.40;124872;1102;104247;-81
2021/01/30 00:50:22;;;;;;;42.87;26.00;;;;;;;-2.02;72.48;98220.24;124870;1103;104281;-80
2021/01/30 00:52:49;;;;;;;41.00;24.93;;;;;;;-1.96;72.61;98222.73;124864;1105;104209;-80
2021/01/30 00:55:22;;;;;;;38.43;23.30;;;;;;;-1.96;72.13;98213.36;124823;1105;104162;-80
2021/01/30 00:57:50;;;;;;;41.20;25.37;;;;;;;-2.01;73.00;98204.05;124958;1102;102952;-80
2021/01/30 01:00:22;;;;;;;42.57;25.93;;;;;;;-2.04;72.80;98216.87;124806;1105;104149;-81
2021/01/30 01:02:50;;;;;;;39.83;23.20;;;;;;;-2.05;72.35;98210.92;124857;1105;104258;-80
2021/01/30 01:05:20;;;;;;;39.30;23.67;;;;;;;-2.10;72.47;98209.30;124851;1105;104874;-80
2021/01/30 01:07:48;;;;;;;41.87;24.67;;;;;;;-2.13;73.12;98207.64;124851;1102;104175;-81
2021/01/30 01:10:19;;;;;;;39.03;25.00;;;;;;;-2.07;73.35;98214.36;124901;1105;104162;-81
2021/01/30 01:12:46;;;;;;;39.60;24.07;;;;;;;-2.09;73.73;98205.88;124783;1105;101991;-80
2021/01/30 01:15:16;;;;;;;36.87;24.90;;;;;;;-2.09;73.54;98209.28;124787;1102;104259;-80
2021/01/30 01:17:43;;;;;;;40.23;25.20;;;;;;;-2.01;73.54;98215.11;124857;1105;104182;-80
2021/01/30 01:20:14;;;;;;;39.37;25.10;;;;;;;-1.94;73.52;98211.62;124886;1103;104169;-81
2021/01/30 01:22:41;;;;;;;38.60;24.03;;;;;;;-1.86;74.02;98217.45;124832;1105;104268;-80
2021/01/30 01:25:09;;;;;;;40.20;24.20;;;;;;;-1.80;74.11;98213.94;124818;1102;104239;-80
2021/01/30 01:27:37;;;;;;;40.20;25.13;;;;;;;-1.69;74.07;98213.79;124847;1105;102740;-80
2021/01/30 01:30:07;;;;;;;40.40;25.23;;;;;;;-1.64;73.94;98212.84;124892;1102;104367;-80
2021/01/30 01:32:34;;;;;;;41.47;25.97;;;;;;;-1.56;73.68;98210.18;124871;1103;104210;-80
2021/01/30 01:35:03;;;;;;;39.73;25.23;;;;;;;-1.57;73.99;98203.38;124863;1105;104156;-80
2021/01/30 01:37:30;;;;;;;40.27;25.43;;;;;;;-1.58;72.80;98201.70;124805;1102;103070;-80
2021/01/30 01:39:58;;;;;;;43.97;27.00;;;;;;;-1.65;73.33;98195.81;124816;1105;104253;-80
2021/01/30 01:42:26;;;;;;;43.30;26.45;;;;;;;-1.70;73.32;98202.72;124853;1105;104298;-80
2021/01/30 01:44:54;;;;;;;41.53;25.83;;;;;;;-1.68;73.81;98200.14;124892;1105;104114;-80
2021/01/30 01:47:35;;;;;;;45.17;27.57;;;;;;;-1.69;73.48;98201.02;124909;1104;104236;-80
2021/01/30 01:50:08;;;;;;;49.73;28.97;;;;;;;-1.66;73.92;98204.36;124832;1105;104203;-80
2021/01/30 01:52:38;;;;;;;47.57;28.37;;;;;;;-1.64;73.77;98206.88;124818;1105;104168;-80
2021/01/30 01:55:16;;;;;;;45.93;27.97;;;;;;;-1.60;74.08;98203.44;124800;1103;104245;-80
2021/01/30 01:57:51;;;;;;;50.80;29.73;;;;;;;-1.59;73.90;98217.91;124814;1102;104274;-80
2021/01/30 02:00:23;;;;;;;52.87;31.00;;;;;;;-1.56;73.37;98216.13;124803;1105;104383;-79
2021/01/30 02:02:53;;;;;;;45.67;27.80;;;;;;;-1.54;73.85;98216.11;124862;1105;104165;-79
2021/01/30 02:05:32;;;;;;;41.43;25.33;;;;;;;-1.56;73.27;98205.06;124737;1105;104165;-80
2021/01/30 02:08:04;;;;;;;42.13;26.10;;;;;;;-1.55;74.14;98204.20;124817;1105;104316;-80
2021/01/30 02:10:42;;;;;;;39.55;24.95;;;;;;;-1.60;73.74;98209.39;124848;1105;104663;-80
2021/01/30 02:13:33;;;;;;;43.70;25.40;;;;;;;-1.61;74.09;98200.04;124838;1105;102295;-80
2021/01/30 02:16:12;;;;;;;38.47;24.97;;;;;;;-1.63;73.91;98199.19;124764;1103;104114;-80
2021/01/30 02:19:01;;;;;;;41.07;25.23;;;;;;;-1.63;73.84;98199.19;124755;1105;104246;-79
2021/01/30 02:21:38;;;;;;;38.73;24.70;;;;;;;-1.63;74.01;98198.34;124817;1102;104114;-80
2021/01/30 02:24:36;;;;;;;39.42;25.45;;;;;;;-1.64;73.97;98194.95;124860;1102;104153;-79
2021/01/30 02:27:25;;;;;;;40.93;25.63;;;;;;;-1.62;74.63;98197.48;124907;1105;104252;-79
2021/01/30 02:30:04;;;;;;;45.33;26.53;;;;;;;-1.59;74.36;98200.85;124824;1106;104053;-80
2021/01/30 02:32:39;;;;;;;42.30;25.47;;;;;;;-1.58;73.92;98199.98;124840;1105;104121;-80
2021/01/30 02:35:27;;;;;;;41.53;26.17;;;;;;;-1.55;74.24;98192.26;124821;1103;103996;-80
2021/01/30 02:38:05;;;;;;;42.00;26.37;;;;;;;-1.54;73.81;98204.17;124912;1102;104188;-80
2021/01/30 02:40:43;;;;;;;43.00;26.97;;;;;;;-1.52;74.59;98201.58;124857;1102;102506;-80
2021/01/30 02:43:14;;;;;;;46.73;27.53;;;;;;;-1.50;74.25;98199.84;124784;1102;104291;-80
2021/01/30 02:45:50;;;;;;;42.57;27.13;;;;;;;-1.50;74.66;98193.89;124799;1106;104245;-80
2021/01/30 02:48:22;;;;;;;49.47;28.40;;;;;;;-1.52;74.22;98189.64;124783;1103;104265;-80
2021/01/30 02:50:57;;;;;;;48.87;28.93;;;;;;;-1.53;73.89;98195.63;124843;1105;103938;-80
2021/01/30 02:53:35;;;;;;;48.37;29.23;;;;;;;-1.52;74.54;98189.64;124900;1102;104148;-79
2021/01/30 02:56:04;;;;;;;46.87;28.60;;;;;;;-1.48;74.42;98187.03;124854;1105;104114;-79
2021/01/30 02:58:43;;;;;;;47.85;28.95;;;;;;;-1.51;74.54;98193.05;124845;1106;104278;-80
2021/01/30 03:01:10;;;;;;;47.73;29.53;;;;;;;-1.48;75.00;98192.98;124868;1106;104070;-80
2021/01/30 03:03:39;;;;;;;50.63;29.97;;;;;;;-1.46;74.43;98186.13;124904;1105;104108;-80
2021/01/30 03:06:21;;;;;;;47.63;28.37;;;;;;;-1.49;74.16;98186.19;124814;1105;104724;-80
2021/01/30 03:09:09;;;;;;;49.60;30.37;;;;;;;-1.52;74.86;98193.91;124896;1105;104363;-80
2021/01/30 03:11:49;;;;;;;50.70;30.77;;;;;;;-1.52;74.66;98188.80;124820;1102;104137;-80
2021/01/30 03:14:34;;;;;;;55.07;31.43;;;;;;;-1.52;74.58;98189.64;124840;1106;104290;-80
2021/01/30 03:17:03;;;;;;;49.67;30.83;;;;;;;-1.52;74.23;98196.47;124854;1105;104640;-80
2021/01/30 03:19:32;;;;;;;53.63;30.43;;;;;;;-1.57;75.21;98194.00;124906;1105;104127;-79
2021/01/30 03:22:07;;;;;;;48.33;29.37;;;;;;;-1.62;74.86;98190.65;124830;1105;103873;-80
2021/01/30 03:24:39;;;;;;;48.33;30.27;;;;;;;-1.65;74.77;98197.53;124789;1105;103938;-80
2021/01/30 03:27:06;;;;;;;52.93;31.27;;;;;;;-1.64;74.53;98197.50;124874;1103;104509;-80
2021/01/30 03:29:33;;;;;;;51.00;30.47;;;;;;;-1.62;74.67;98200.88;124860;1102;104175;-80
2021/01/30 03:32:00;;;;;;;47.78;30.75;;;;;;;-1.63;74.89;98193.23;124840;1103;104241;-80
2021/01/30 03:34:27;;;;;;;49.63;31.30;;;;;;;-1.63;75.64;98198.34;124866;1102;104111;-79
2021/01/30 03:36:55;;;;;;;50.10;30.80;;;;;;;-1.57;75.76;98182.94;124753;1105;105462;-80
2021/01/30 03:39:22;;;;;;;55.53;31.40;;;;;;;-1.53;75.56;98187.12;124814;1102;101769;-80
2021/01/30 03:41:49;;;;;;;45.48;28.98;;;;;;;-1.49;75.08;98191.30;124934;1106;104128;-80
2021/01/30 03:44:16;;;;;;;46.90;28.70;;;;;;;-1.42;75.20;98192.06;124805;1105;104220;-80
2021/01/30 03:46:43;;;;;;;46.10;27.93;;;;;;;-1.40;75.57;98191.16;124817;1106;104232;-80
2021/01/30 03:49:10;;;;;;;45.93;28.63;;;;;;;-1.41;75.28;98188.63;124777;1102;104128;-80
2021/01/30 03:51:38;;;;;;;41.60;26.93;;;;;;;-1.43;75.17;98187.82;124783;1103;104146;-80
2021/01/30 03:54:05;;;;;;;44.13;27.20;;;;;;;-1.44;75.05;98184.39;124833;1105;104185;-80
2021/01/30 03:56:32;;;;;;;45.73;27.70;;;;;;;-1.49;74.94;98181.08;124804;1105;104118;-80
2021/01/30 03:58:59;;;;;;;46.73;28.10;;;;;;;-1.50;74.81;98176.83;124833;1102;104347;-79
2021/01/30 04:01:34;;;;;;;46.13;27.83;;;;;;;-1.53;75.28;98174.33;124811;1105;104108;-80
2021/01/30 04:04:05;;;;;;;51.50;29.70;;;;;;;-1.54;74.79;98173.49;124796;1103;104108;-80
2021/01/30 04:06:32;;;;;;;47.25;30.35;;;;;;;-1.54;74.83;98177.77;124832;1106;104110;-80
2021/01/30 04:08:59;;;;;;;46.27;28.77;;;;;;;-1.58;74.73;98178.69;124777;1102;104201;-80
2021/01/30 04:11:29;;;;;;;53.47;31.20;;;;;;;-1.62;74.49;98174.47;124803;1105;104162;-80
2021/01/30 04:13:58;;;;;;;48.10;30.00;;;;;;;-1.63;75.05;98177.90;124788;1105;104028;-80
2021/01/30 04:16:26;;;;;;;51.55;30.10;;;;;;;-1.64;75.39;98169.39;124785;1106;104178;-81
2021/01/30 04:18:54;;;;;;;50.13;30.40;;;;;;;-1.63;75.75;98170.23;124943;1102;102863;-80
2021/01/30 04:21:21;;;;;;;55.87;31.60;;;;;;;-1.64;75.50;98168.55;124794;1103;104230;-80
2021/01/30 04:23:49;;;;;;;55.10;31.57;;;;;;;-1.62;75.53;98175.31;124741;1103;103986;-80
2021/01/30 04:26:18;;;;;;;48.13;30.00;;;;;;;-1.60;75.27;98167.66;124951;1102;104163;-79
2021/01/30 04:28:51;;;;;;;50.43;30.67;;;;;;;-1.57;75.53;98173.55;124811;1102;103931;-80
2021/01/30 04:31:19;;;;;;;49.13;30.20;;;;;;;-1.58;75.49;98166.75;124821;1103;104210;-79
2021/01/30 04:33:49;;;;;;;54.43;29.90;;;;;;;-1.56;75.61;98164.16;124757;1105;104297;-80
2021/01/30 04:36:19;;;;;;;49.33;30.87;;;;;;;-1.56;75.49;98169.28;124764;1105;103970;-80
2021/01/30 04:38:47;;;;;;;49.37;30.37;;;;;;;-1.53;75.43;98164.11;124858;1103;104130;-79
2021/01/30 04:41:48;;;;;;;51.27;30.67;;;;;;;-1.52;75.52;98166.64;124869;1102;104120;-79
2021/01/30 04:44:28;;;;;;;48.53;30.17;;;;;;;-1.50;76.08;98158.94;124792;1102;104255;-81
2021/01/30 04:47:32;;;;;;;48.77;29.47;;;;;;;-1.47;76.24;98153.77;124808;1106;104169;-79
2021/01/30 04:50:24;;;;;;;53.17;31.20;;;;;;;-1.42;75.66;98152.00;124799;1105;104265;-80
2021/01/30 04:53:03;;;;;;;51.13;31.13;;;;;;;-1.41;76.16;98151.13;124825;1106;104130;-79
2021/01/30 04:55:56;;;;;;;53.80;32.13;;;;;;;-1.36;75.68;98151.03;124888;1105;104165;-80
2021/01/30 04:59:09;;;;;;;55.60;32.63;;;;;;;-1.34;75.97;98145.02;124854;1105;104274;-81
2021/01/30 05:01:46;;;;;;;58.83;33.13;;;;;;;-1.31;76.02;98144.95;124571;1109;104357;-81
2021/01/30 05:04:20;;;;;;;54.00;32.53;;;;;;;-1.28;75.67;98144.89;124554;1108;104285;-80
2021/01/30 05:07:02;;;;;;;58.60;34.43;;;;;;;-1.31;75.31;98144.95;124576;1108;104300;-80
2021/01/30 05:09:54;;;;;;;55.17;32.23;;;;;;;-1.30;75.71;98146.64;124655;1109;104126;-81
2021/01/30 05:12:32;;;;;;;59.87;33.97;;;;;;;-1.32;75.86;98144.98;124554;1109;104307;-80
2021/01/30 05:15:07;;;;;;;55.93;33.30;;;;;;;-1.34;75.75;98141.62;124593;1109;103098;-80
2021/01/30 05:17:40;;;;;;;56.67;31.90;;;;;;;-1.42;75.43;98139.22;124577;1109;102734;-80
2021/01/30 05:20:10;;;;;;;55.37;32.47;;;;;;;-1.47;75.63;98147.81;124688;1109;104143;-80
2021/01/30 05:22:40;;;;;;;55.63;33.00;;;;;;;-1.50;75.37;98146.16;124623;1109;104270;-80
2021/01/30 05:25:14;;;;;;;54.83;31.70;;;;;;;-1.50;75.87;98143.60;124644;1106;102316;-80
2021/01/30 05:27:56;;;;;;;58.37;33.27;;;;;;;-1.53;75.31;98143.66;124562;1109;104091;-80
2021/01/30 05:30:31;;;;;;;57.27;33.57;;;;;;;-1.59;75.47;98141.22;124566;1106;104217;-81
2021/01/30 05:33:13;;;;;;;57.08;33.20;;;;;;;-1.59;76.03;98146.33;124834;1106;104169;-81
2021/01/30 05:35:49;;;;;;;61.27;33.37;;;;;;;-1.60;75.96;98136.98;124913;1102;104127;-81
2021/01/30 05:38:44;;;;;;;52.33;31.20;;;;;;;-1.61;76.06;98142.97;124840;1103;104131;-79
2021/01/30 05:41:31;;;;;;;55.03;33.50;;;;;;;-1.63;75.99;98142.12;124869;1105;103068;-80
2021/01/30 05:44:17;;;;;;;51.60;30.73;;;;;;;-1.66;75.56;98139.62;124824;1102;103966;-80
2021/01/30 05:46:45;;;;;;;48.93;30.20;;;;;;;-1.70;76.11;98136.28;124911;1105;104047;-80
2021/01/30 05:49:18;;;;;;;66.30;37.53;;;;;;;-1.72;76.29;98132.06;124879;1102;104056;-80
2021/01/30 05:52:04;;;;;;;54.37;32.47;;;;;;;-1.73;76.82;98128.67;124873;1105;104214;-79
2021/01/30 05:54:31;;;;;;;51.37;30.70;;;;;;;-1.72;75.85;98129.52;124842;1103;104198;-80
2021/01/30 05:56:58;;;;;;;49.03;29.43;;;;;;;-1.73;76.21;98131.22;124870;1105;104284;-80
2021/01/30 05:59:28;;;;;;;52.53;31.57;;;;;;;-1.73;76.54;98128.67;124997;1102;104153;-80
2021/01/30 06:02:16;;;;;;;47.17;29.27;;;;;;;-1.74;76.19;98129.54;124905;1105;104121;-80
2021/01/30 06:04:44;;;;;;;50.93;31.97;;;;;;;-1.77;76.03;98128.75;124872;1105;104136;-79
2021/01/30 06:07:26;;;;;;;49.17;30.27;;;;;;;-1.80;75.68;98133.89;124883;1106;104308;-80
2021/01/30 06:09:54;;;;;;;51.17;31.23;;;;;;;-1.85;75.82;98127.15;124878;1105;103932;-80
2021/01/30 06:12:33;;;;;;;48.90;30.97;;;;;;;-1.83;76.33;98133.08;124948;1105;104203;-80
2021/01/30 06:15:21;;;;;;;52.87;31.37;;;;;;;-1.83;76.19;98138.19;124852;1105;104210;-80
2021/01/30 06:17:48;;;;;;;54.70;32.37;;;;;;;-1.81;76.86;98133.05;124888;1103;102320;-81
2021/01/30 06:20:18;;;;;;;60.23;34.47;;;;;;;-1.82;75.95;98139.02;124808;1103;104233;-80
2021/01/30 06:23:06;;;;;;;58.70;34.57;;;;;;;-1.83;76.95;98133.08;124826;1102;104734;-80
2021/01/30 06:25:37;;;;;;;58.83;34.33;;;;;;;-1.80;76.69;98133.89;124912;1105;103444;-80
2021/01/30 06:28:28;;;;;;;56.97;34.57;;;;;;;-1.77;76.71;98138.97;124897;1102;104150;-80
2021/01/30 06:31:29;;;;;;;62.43;34.87;;;;;;;-1.74;76.30;98133.81;124863;1106;104265;-80
2021/01/30 06:34:29;;;;;;;55.40;33.05;;;;;;;-1.70;76.08;98136.28;124831;1102;104153;-80
2021/01/30 06:36:58;;;;;;;55.47;31.47;;;;;;;-1.67;76.63;98138.77;124901;1105;104245;-80
2021/01/30 06:39:31;;;;;;;57.87;33.33;;;;;;;-1.63;76.49;98142.12;124927;1103;104130;-80
2021/01/30 06:42:08;;;;;;;58.63;33.80;;;;;;;-1.59;76.28;98143.77;124852;1106;104108;-80
2021/01/30 06:44:37;;;;;;;;;;;;;;;-1.54;76.02;98137.70;124864;1103;104192;-80
2021/01/30 06:47:20;;;;;;;56.03;32.33;;;;;;;-1.52;76.60;98132.56;124872;1106;104335;-81
2021/01/30 06:49:54;;;;;;;56.00;33.53;;;;;;;-1.48;76.36;98134.19;124818;1105;104185;-80
2021/01/30 06:52:29;;;;;;;53.77;30.97;;;;;;;-1.45;76.45;98126.45;124817;1102;101929;-80
2021/01/30 06:55:05;;;;;;;46.47;26.03;;;;;;;-1.42;75.78;98128.98;124943;1103;104178;-80
2021/01/30 06:57:33;;;;;;;42.20;26.25;;;;;;;-1.45;76.02;98125.62;124843;1102;104236;-80
2021/01/30 07:00:12;;;;;;;36.10;23.13;;;;;;;-1.46;75.69;98129.89;124849;1106;104298;-80
2021/01/30 07:02:48;;;;;;;34.47;22.27;;;;;;;-1.46;75.27;98134.16;124649;1106;103957;-80
2021/01/30 07:05:28;;;;;;;31.37;20.23;;;;;;;-1.46;75.80;98136.72;124865;1103;104274;-80
2021/01/30 07:08:24;;;;;;;34.37;20.27;;;;;;;-1.43;76.10;98137.53;124818;1105;104201;-80
2021/01/30 07:11:10;;;;;;;33.77;21.27;;;;;;;-1.42;75.88;98140.92;124847;1102;104373;-80
2021/01/30 07:14:11;;;;;;;37.87;21.77;;;;;;;-1.42;75.37;98135.81;124924;1106;102993;-81
2021/01/30 07:17:11;;;;;;;33.40;21.00;;;;;;;-1.44;75.16;98132.41;124879;1105;104286;-81
2021/01/30 07:20:14;;;;;;;32.43;20.03;;;;;;;-1.48;75.41;98131.63;124867;1105;104163;-81
2021/01/30 07:22:50;;;;;;;30.37;19.07;;;;;;;-1.48;74.98;98141.02;124849;1105;104203;-81
2021/01/30 07:25:30;;;;;;;;;;;;;;;-1.47;75.24;98138.43;124860;1102;104188;-80
2021/01/30 07:28:23;;;;;;;33.60;20.60;;;;;;;-1.51;75.32;98141.91;124864;1106;104183;-81
2021/01/30 07:30:59;;;;;;;39.47;23.53;;;;;;;-1.53;75.13;98143.66;124818;1105;104195;-81
2021/01/30 07:33:39;;;;;;;36.10;22.48;;;;;;;-1.53;75.26;98133.44;124870;1106;103937;-81
2021/01/30 07:36:13;;;;;;;37.43;22.57;;;;;;;-1.53;75.97;98134.27;124849;1102;104112;-81
2021/01/30 07:38:47;;;;;;;33.37;22.43;;;;;;;-1.49;75.87;98141.89;124855;1105;104075;-80
2021/01/30 07:41:38;;;;;;;34.07;22.53;;;;;;;-1.45;76.32;98139.23;124877;1105;104185;-80
2021/01/30 07:44:31;;;;;;;36.73;21.97;;;;;;;-1.41;75.97;98130.67;124856;1105;104249;-80
2021/01/30 07:47:45;;;;;;;35.13;22.87;;;;;;;-1.33;76.79;98133.92;124831;1103;104207;-80
2021/01/30 07:50:36;;;;;;;33.73;21.50;;;;;;;-1.18;76.08;98127.68;124528;1108;104140;-80
2021/01/30 07:53:10;;;;;;;31.80;20.57;;;;;;;-1.17;75.87;98123.41;124592;1109;104217;-80
2021/01/30 07:55:42;;;;;;;35.27;22.03;;;;;;;-1.16;75.51;98127.65;124484;1109;103198;-80
2021/01/30 07:58:30;;;;;;;35.80;23.20;;;;;;;-1.17;75.08;98139.59;124548;1109;104115;-81
2021/01/30 08:01:06;;;;;;;38.63;23.43;;;;;;;-1.19;74.66;98133.67;124581;1109;104214;-80
2021/01/30 08:03:58;;;;;;;36.37;24.27;;;;;;;-1.20;75.03;98131.14;124543;1109;104286;-81
2021/01/30 08:07:01;;;;;;;40.07;24.53;;;;;;;-1.19;75.15;98125.16;124563;1109;104223;-80
2021/01/30 08:09:38;;;;;;;38.77;24.60;;;;;;;-1.11;75.34;98131.80;124525;1109;104168;-81
2021/01/30 08:12:10;;;;;;;;;;;;;;;-1.04;74.71;98135.09;124241;1111;104659;-81
2021/01/30 08:14:59;;;;;;;39.93;25.50;;;;;;;-1.00;75.11;98134.16;124455;1108;104277;-80
2021/01/30 08:17:39;;;;;;;36.83;24.83;;;;;;;-0.94;75.08;98139.14;124247;1112;104268;-81
2021/01/30 08:20:16;;;;;;;38.70;24.20;;;;;;;-0.91;74.45;98129.69;124296;1109;104117;-81
2021/01/30 08:22:54;;;;;;;32.28;22.32;;;;;;;-0.84;74.89;98138.09;124293;1111;104262;-80
2021/01/30 08:25:51;;;;;;;28.80;19.47;;;;;;;-0.78;74.26;98135.41;124250;1112;104261;-81
2021/01/30 08:28:28;;;;;;;28.42;18.80;;;;;;;-0.72;73.79;98129.30;124570;1109;104204;-80
2021/01/30 08:30:56;;;;;;;28.40;20.10;;;;;;;-0.66;73.76;98124.08;124627;1109;104185;-80
2021/01/30 08:33:23;;;;;;;30.93;21.57;;;;;;;-0.61;73.66;98122.26;124584;1109;104155;-81
2021/01/30 08:35:55;;;;;;;31.03;20.30;;;;;;;-0.54;73.87;98121.23;124624;1109;104225;-80
2021/01/30 08:38:22;;;;;;;31.47;20.40;;;;;;;-0.45;73.38;98118.49;124618;1109;104171;-80
2021/01/30 08:40:57;;;;;;;31.65;20.20;;;;;;;-0.37;73.34;98126.83;124607;1105;104265;-81
2021/01/30 08:43:48;;;;;;;27.07;18.77;;;;;;;-0.34;73.51;98120.83;124876;1105;103961;-81
2021/01/30 08:46:33;;;;;;;28.40;20.10;;;;;;;-0.29;73.06;98124.13;124575;1109;104563;-80
2021/01/30 08:49:14;;;;;;;29.97;20.50;;;;;;;-0.28;73.04;98125.80;124875;1102;104201;-80
2021/01/30 08:52:09;;;;;;;31.57;22.10;;;;;;;-0.24;73.61;98132.53;124779;1103;104274;-81
2021/01/30 08:54:45;;;;;;;30.40;21.27;;;;;;;-0.23;72.68;98118.00;124871;1106;102773;-81
2021/01/30 08:57:31;;;;;;;;;;;;;;;-0.21;72.98;98122.21;124895;1102;104233;-80
2021/01/30 09:00:03;;;;;;;35.10;23.83;;;;;;;-0.14;73.41;98123.77;124842;1102;104246;-81
2021/01/30 09:02:34;;;;;;;34.63;22.73;;;;;;;-0.08;73.42;98126.19;124863;1106;104673;-82
2021/01/30 09:05:01;;;;;;;36.37;24.27;;;;;;;-0.02;73.34;98127.75;124810;1105;104121;-82
2021/01/30 09:07:49;;;;;;;49.75;30.50;;;;;;;0.01;73.25;98131.98;124883;1105;104148;-81
2021/01/30 09:10:22;;;;;;;39.83;25.67;;;;;;;0.05;73.28;98126.75;124873;1105;102916;-83
2021/01/30 09:13:13;;;;;;;33.10;22.40;;;;;;;0.13;73.44;98131.67;124852;1103;104256;-83
2021/01/30 09:15:43;;;;;;;34.70;23.37;;;;;;;0.20;73.43;98133.23;124814;1105;104105;-83
2021/01/30 09:18:36;;;;;;;39.53;23.83;;;;;;;0.19;72.90;98142.64;124802;1102;103922;-83
2021/01/30 09:21:16;;;;;;;36.20;23.65;;;;;;;0.20;73.24;98133.23;124874;1105;104206;-82
2021/01/30 09:23:56;;;;;;;38.63;24.73;;;;;;;0.32;73.43;98132.91;124830;1103;104220;-83
2021/01/30 09:26:49;;;;;;;46.13;27.73;;;;;;;0.42;73.25;98138.66;124852;1105;104209;-83
2021/01/30 09:29:22;;;;;;;34.57;22.47;;;;;;;0.49;73.07;98145.31;124839;1105;104188;-83
2021/01/30 09:31:58;;;;;;;33.60;21.43;;;;;;;0.46;72.79;98148.80;124902;1105;104291;-83
2021/01/30 09:34:31;;;;;;;28.63;17.87;;;;;;;0.45;72.52;98134.30;124948;1103;104165;-81
2021/01/30 09:36:59;;;;;;;21.57;15.60;;;;;;;0.48;72.55;98134.21;125006;1102;103938;-82
2021/01/30 09:39:29;;;;;;;24.20;16.10;;;;;;;0.53;72.16;98134.09;124871;1106;102461;-82
2021/01/30 09:42:14;;;;;;;30.87;18.57;;;;;;;0.56;71.86;98136.59;124857;1105;103036;-82
2021/01/30 09:44:44;;;;;;;45.27;26.27;;;;;;;0.55;72.24;98135.76;124783;1102;104286;-82
2021/01/30 09:47:20;;;;;;;43.93;27.73;;;;;;;0.55;72.01;98140.05;124904;1103;104194;-83
2021/01/30 09:50:04;;;;;;;36.50;22.77;;;;;;;0.55;72.31;98147.74;124893;1102;104940;-83
2021/01/30 09:52:32;;;;;;;34.07;20.27;;;;;;;0.49;72.67;98146.16;124846;1105;104255;-83
2021/01/30 09:55:09;;;;;;;31.63;20.77;;;;;;;0.52;72.41;98143.50;124837;1102;104243;-82
2021/01/30 09:57:38;;;;;;;27.83;18.30;;;;;;;0.57;72.58;98141.69;124868;1103;104092;-82
2021/01/30 10:00:12;;;;;;;27.20;18.97;;;;;;;0.59;72.37;98146.77;124878;1105;104214;-82
2021/01/30 10:02:40;;;;;;;29.03;19.50;;;;;;;0.56;72.34;98147.70;124865;1103;104161;-83
2021/01/30 10:05:20;;;;;;;29.53;18.47;;;;;;;0.54;72.00;98146.90;124903;1106;104236;-82
2021/01/30 10:07:47;;;;;;;25.83;19.00;;;;;;;0.52;72.23;98146.06;124792;1105;104859;-82
2021/01/30 10:10:24;;;;;;;30.70;20.80;;;;;;;0.51;72.01;98153.80;124827;1105;104146;-81
2021/01/30 10:12:55;;;;;;;39.30;24.50;;;;;;;0.45;72.24;98157.37;124912;1105;104024;-81
2021/01/30 10:15:37;;;;;;;44.83;26.03;;;;;;;0.46;72.51;98164.19;124832;1103;104258;-81
2021/01/30 10:18:10;;;;;;;42.83;25.83;;;;;;;0.49;72.48;98163.27;124832;1105;102723;-81
2021/01/30 10:20:51;;;;;;;45.20;27.67;;;;;;;0.51;72.57;98170.03;124797;1105;102407;-80
2021/01/30 10:23:41;;;;;;;42.43;26.60;;;;;;;0.50;72.29;98172.64;124806;1106;104277;-81
2021/01/30 10:26:11;;;;;;;46.43;27.00;;;;;;;0.50;72.37;98173.48;124887;1105;104167;-80
2021/01/30 10:28:41;;;;;;;47.77;28.73;;;;;;;0.48;72.41;98164.98;124817;1105;104095;-80
2021/01/30 10:31:10;;;;;;;42.80;26.70;;;;;;;0.45;72.64;98157.37;124906;1102;104157;-80
2021/01/30 10:33:47;;;;;;;36.43;22.67;;;;;;;0.42;72.59;98154.05;124864;1106;104182;-81
2021/01/30 10:36:16;;;;;;;;;;;;;;;0.40;72.40;98159.22;124872;1102;104216;-80
2021/01/30 10:38:43;;;;;;;37.67;24.00;;;;;;;0.40;72.25;98169.48;124840;1106;104246;-81
2021/01/30 10:41:17;;;;;;;35.77;23.77;;;;;;;0.40;72.10;98171.20;124854;1105;104369;-80
2021/01/30 10:43:47;;;;;;;40.07;23.90;;;;;;;0.37;72.69;98166.16;124889;1106;105224;-81
2021/01/30 10:46:31;;;;;;;35.00;23.37;;;;;;;0.36;72.57;98170.44;124848;1105;104205;-81
2021/01/30 10:49:07;;;;;;;36.87;23.47;;;;;;;0.37;72.59;98161.02;124821;1102;104182;-81
2021/01/30 10:51:36;;;;;;;35.10;22.27;;;;;;;0.37;72.73;98161.86;124886;1103;104140;-80
2021/01/30 10:54:30;;;;;;;32.07;21.33;;;;;;;0.35;72.48;98158.47;124906;1105;104284;-80
2021/01/30 10:57:03;;;;;;;32.40;21.73;;;;;;;0.37;72.78;98166.99;124890;1105;104181;-81
2021/01/30 10:59:44;;;;;;;33.53;21.27;;;;;;;0.40;72.83;98166.08;124933;1105;104290;-81
2021/01/30 11:02:23;;;;;;;31.33;20.43;;;;;;;0.40;72.76;98164.34;124858;1102;103192;-81
2021/01/30 11:05:22;;;;;;;32.47;21.37;;;;;;;0.44;72.69;98165.11;124881;1105;104191;-81
2021/01/30 11:08:02;;;;;;;34.97;21.93;;;;;;;0.50;72.77;98165.78;124836;1105;102269;-80
2021/01/30 11:10:41;;;;;;;31.13;21.10;;;;;;;0.51;72.66;98164.06;124926;1103;104249;-81
2021/01/30 11:13:13;;;;;;;31.73;20.60;;;;;;;0.49;72.67;98171.80;124929;1103;104118;-82
2021/01/30 11:15:43;;;;;;;28.20;19.90;;;;;;;0.50;72.47;98172.64;124793;1103;104095;-82
2021/01/30 11:18:28;;;;;;;30.90;20.03;;;;;;;0.47;72.77;98171.00;124866;1102;104136;-82
2021/01/30 11:21:00;;;;;;;32.33;20.10;;;;;;;0.51;72.78;98169.19;124823;1102;104130;-82
2021/01/30 11:23:48;;;;;;;37.17;22.30;;;;;;;0.57;72.97;98171.63;124842;1105;104193;-82
2021/01/30 11:26:24;;;;;;;33.60;21.83;;;;;;;0.57;72.56;98169.06;124847;1105;104235;-82
2021/01/30 11:28:52;;;;;;;32.60;21.23;;;;;;;0.59;72.89;98173.27;124895;1102;104172;-81
2021/01/30 11:31:20;;;;;;;35.37;22.13;;;;;;;0.65;72.79;98179.11;124894;1106;104162;-82
2021/01/30 11:33:55;;;;;;;36.93;22.80;;;;;;;0.64;72.77;98185.13;124856;1102;105692;-80
2021/01/30 11:36:26;;;;;;;34.17;21.53;;;;;;;0.60;72.27;98185.21;124867;1105;104121;-82
2021/01/30 11:39:00;;;;;;;36.13;22.97;;;;;;;0.58;72.63;98181.84;124826;1105;104075;-81
2021/01/30 11:41:27;;;;;;;35.97;22.67;;;;;;;0.62;72.63;98182.60;124806;1106;104060;-82
2021/01/30 11:43:56;;;;;;;37.30;24.13;;;;;;;0.63;72.93;98178.31;124864;1105;104594;-83